Time;durP1;ratioP1;P1;durP2;ratioP2;P2;SDS_P1;SDS_P2;PMS_P1;PMS_P2;Temp;Humidity;BMP_temperature;BMP_pressure;BME280_temperature;BME280_humidity;BME280_pressure;Samples;Min_cycle;Max_cycle;Signal;HPM_P1;HPM_P2
2021/10/17 00:00:09;;;;;;;11.40;4.80;;;10.80;99.90;;;;;;5098964;28;20232;-67
2021/10/17 00:02:35;;;;;;;13.80;4.05;;;10.70;99.90;;;;;;5096327;28;20047;-67
2021/10/17 00:05:13;;;;;;;11.93;3.95;;;10.70;99.90;;;;;;5098941;28;20040;-67
2021/10/17 00:07:39;;;;;;;6.70;3.55;;;10.70;99.90;;;;;;5093982;28;20039;-67
2021/10/17 00:10:07;;;;;;;9.95;4.63;;;10.70;99.90;;;;;;5096175;28;20465;-67
2021/10/17 00:12:34;;;;;;;13.30;5.03;;;10.70;99.90;;;;;;5077223;28;20040;-67
2021/10/17 00:15:00;;;;;;;11.85;4.63;;;10.60;99.90;;;;;;5097234;28;20480;-67
2021/10/17 00:17:25;;;;;;;10.48;4.15;;;10.60;99.90;;;;;;5097750;28;20039;-67
2021/10/17 00:19:51;;;;;;;12.90;3.70;;;10.60;99.90;;;;;;5093256;28;20036;-67
2021/10/17 00:22:17;;;;;;;14.20;4.00;;;10.60;99.90;;;;;;5097058;28;20038;-67
2021/10/17 00:24:43;;;;;;;8.80;4.10;;;10.60;99.90;;;;;;5102002;28;20044;-67
2021/10/17 00:27:08;;;;;;;14.52;5.40;;;10.60;99.90;;;;;;5094799;28;20065;-67
2021/10/17 00:29:34;;;;;;;10.05;4.60;;;10.60;99.90;;;;;;5096074;28;20040;-67
2021/10/17 00:32:01;;;;;;;9.25;5.35;;;10.50;99.90;;;;;;5093664;28;20032;-67
2021/10/17 00:34:27;;;;;;;10.88;4.47;;;10.60;99.90;;;;;;5099484;28;20994;-67
2021/10/17 00:36:52;;;;;;;11.70;4.28;;;10.60;99.90;;;;;;5097217;28;20103;-67
2021/10/17 00:39:18;;;;;;;12.65;4.47;;;10.50;99.90;;;;;;5125099;27;20489;-67
2021/10/17 00:41:46;;;;;;;9.05;4.93;;;10.50;99.90;;;;;;5095533;28;20047;-67
2021/10/17 00:44:20;;;;;;;11.48;4.65;;;10.50;99.90;;;;;;5094770;28;20040;-67
2021/10/17 00:46:46;;;;;;;11.20;4.28;;;10.50;99.90;;;;;;5081979;28;20039;-67
2021/10/17 00:49:18;;;;;;;10.50;5.20;;;10.50;99.90;;;;;;5095584;28;20042;-68
2021/10/17 00:51:44;;;;;;;13.70;4.30;;;10.50;99.90;;;;;;5095390;28;20477;-67
2021/10/17 00:54:14;;;;;;;13.07;4.60;;;10.40;99.90;;;;;;5094978;28;20408;-67
2021/10/17 00:56:42;;;;;;;11.73;4.28;;;10.50;99.90;;;;;;5094773;28;20548;-67
2021/10/17 00:59:12;;;;;;;11.00;5.25;;;10.40;99.90;;;;;;5095833;28;20197;-67
2021/10/17 01:01:38;;;;;;;11.30;5.60;;;10.40;99.90;;;;;;5095486;28;21152;-67
2021/10/17 01:04:04;;;;;;;8.75;4.05;;;10.40;99.90;;;;;;5094751;28;20063;-67
2021/10/17 01:06:31;;;;;;;13.32;4.38;;;10.40;99.90;;;;;;5095017;28;20783;-67
2021/10/17 01:08:56;;;;;;;14.20;5.28;;;10.40;99.90;;;;;;5098825;28;20067;-67
2021/10/17 01:11:22;;;;;;;11.35;4.65;;;10.40;99.90;;;;;;5095050;28;20113;-67
2021/10/17 01:13:49;;;;;;;12.95;4.78;;;10.40;99.90;;;;;;5098695;28;20114;-67
2021/10/17 01:16:14;;;;;;;14.27;4.97;;;10.40;99.90;;;;;;5095506;28;20043;-67
2021/10/17 01:18:40;;;;;;;16.48;5.45;;;10.40;99.90;;;;;;5097272;28;20040;-67
2021/10/17 01:21:06;;;;;;;13.35;4.57;;;10.40;99.90;;;;;;5097478;28;20068;-67
2021/10/17 01:23:31;;;;;;;9.82;4.72;;;10.40;99.90;;;;;;5097397;28;20044;-67
2021/10/17 01:25:57;;;;;;;10.38;5.32;;;10.50;99.90;;;;;;5098981;28;20116;-67
2021/10/17 01:28:24;;;;;;;12.77;4.90;;;10.50;99.90;;;;;;5099309;27;20032;-67
2021/10/17 01:30:51;;;;;;;14.60;6.07;;;10.50;99.90;;;;;;5097912;27;20135;-67
2021/10/17 01:33:17;;;;;;;10.55;5.13;;;10.50;99.90;;;;;;5131190;27;20050;-67
2021/10/17 01:35:43;;;;;;;14.35;5.03;;;10.50;99.90;;;;;;5101415;28;20048;-67
2021/10/17 01:38:10;;;;;;;13.63;5.00;;;10.50;99.90;;;;;;5098502;27;20032;-67
2021/10/17 01:40:36;;;;;;;13.18;5.22;;;10.60;99.90;;;;;;5099798;28;20525;-67
2021/10/17 01:43:02;;;;;;;13.40;4.65;;;10.50;99.90;;;;;;5128562;27;20622;-67
2021/10/17 01:45:28;;;;;;;10.88;4.97;;;10.60;99.90;;;;;;5099651;27;20066;-67
2021/10/17 01:47:54;;;;;;;11.85;5.10;;;10.60;99.90;;;;;;5098174;28;20051;-67
2021/10/17 01:50:21;;;;;;;11.85;5.03;;;10.60;99.90;;;;;;5129043;27;20048;-67
2021/10/17 01:52:48;;;;;;;13.20;5.25;;;10.60;99.90;;;;;;5096637;27;20567;-68
2021/10/17 01:55:14;;;;;;;13.82;5.63;;;10.60;99.90;;;;;;5098264;28;20075;-67
2021/10/17 01:57:39;;;;;;;12.75;5.63;;;10.60;99.90;;;;;;5080475;28;20059;-68
2021/10/17 02:00:06;;;;;;;13.75;6.00;;;10.50;99.90;;;;;;5099578;28;20055;-67
2021/10/17 02:02:32;;;;;;;14.77;5.85;;;10.50;99.90;;;;;;5130329;27;20039;-67
2021/10/17 02:04:58;;;;;;;11.93;5.68;;;10.50;99.90;;;;;;5100823;28;20039;-67
2021/10/17 02:07:24;;;;;;;13.18;6.47;;;10.40;99.90;;;;;;5098666;28;20061;-67
2021/10/17 02:09:51;;;;;;;15.02;5.30;;;10.40;99.90;;;;;;5099211;28;20043;-67
2021/10/17 02:12:21;;;;;;;16.23;6.07;;;10.30;99.90;;;;;;5096922;28;20077;-67
2021/10/17 02:14:47;;;;;;;21.27;6.70;;;10.30;99.90;;;;;;5098172;28;20035;-67
2021/10/17 02:17:13;;;;;;;14.18;6.00;;;10.30;99.90;;;;;;5093635;27;20763;-67
2021/10/17 02:19:39;;;;;;;12.25;6.40;;;10.30;99.90;;;;;;5093717;28;20036;-67
2021/10/17 02:22:05;;;;;;;13.38;5.78;;;10.30;99.90;;;;;;5098614;28;20661;-67
2021/10/17 02:24:31;;;;;;;13.05;6.18;;;10.20;99.90;;;;;;5098939;28;20130;-67
2021/10/17 02:26:56;;;;;;;17.67;6.07;;;10.30;99.90;;;;;;5100120;28;20477;-67
2021/10/17 02:29:22;;;;;;;14.38;5.60;;;10.20;99.90;;;;;;5087458;28;20039;-67
2021/10/17 02:31:48;;;;;;;16.70;6.07;;;10.20;99.90;;;;;;5087311;28;20043;-67
2021/10/17 02:34:13;;;;;;;12.02;6.07;;;10.20;99.90;;;;;;5091262;28;20401;-67
2021/10/17 02:36:39;;;;;;;10.43;5.50;;;10.10;99.90;;;;;;5104679;27;20058;-68
2021/10/17 02:39:05;;;;;;;18.00;6.15;;;10.10;99.90;;;;;;5105204;27;20130;-67
2021/10/17 02:41:31;;;;;;;18.08;5.82;;;10.10;99.90;;;;;;5104012;28;20047;-67
2021/10/17 02:43:56;;;;;;;13.88;5.60;;;10.10;99.90;;;;;;5102031;27;20548;-67
2021/10/17 02:46:22;;;;;;;8.30;5.68;;;10.10;99.90;;;;;;5101872;27;20036;-67
2021/10/17 02:48:47;;;;;;;18.17;5.65;;;10.20;99.90;;;;;;5099560;28;20055;-67
2021/10/17 02:51:13;;;;;;;14.95;5.55;;;10.10;99.90;;;;;;5134950;27;20045;-67
2021/10/17 02:53:39;;;;;;;9.65;5.40;;;10.10;99.90;;;;;;5105336;27;20115;-67
2021/10/17 02:56:05;;;;;;;11.90;4.93;;;10.10;99.90;;;;;;5091818;27;20039;-67
2021/10/17 02:58:30;;;;;;;17.00;6.40;;;10.10;99.90;;;;;;5100533;28;20040;-67
2021/10/17 03:00:56;;;;;;;12.45;5.50;;;10.00;99.90;;;;;;5099655;28;20028;-67
2021/10/17 03:03:21;;;;;;;12.25;5.18;;;10.00;99.90;;;;;;5104562;27;20609;-67
2021/10/17 03:05:47;;;;;;;15.35;5.50;;;10.00;99.90;;;;;;5101490;27;20149;-67
2021/10/17 03:08:13;;;;;;;18.17;6.40;;;10.00;99.90;;;;;;5104772;27;20492;-67
2021/10/17 03:10:38;;;;;;;15.25;5.32;;;10.00;99.90;;;;;;5101280;28;20039;-67
2021/10/17 03:13:04;;;;;;;10.65;5.00;;;9.90;99.90;;;;;;5103076;28;20481;-67
2021/10/17 03:15:29;;;;;;;12.27;5.90;;;10.00;99.90;;;;;;5100004;27;20358;-67
2021/10/17 03:17:55;;;;;;;14.98;6.00;;;10.00;99.90;;;;;;5104211;28;20134;-67
2021/10/17 03:20:22;;;;;;;11.88;5.70;;;9.90;99.90;;;;;;5087543;28;20047;-67
2021/10/17 03:22:48;;;;;;;17.13;6.82;;;9.90;99.90;;;;;;5102108;27;20130;-67
2021/10/17 03:25:13;;;;;;;13.10;5.78;;;9.90;99.90;;;;;;5107803;27;20172;-67
2021/10/17 03:27:39;;;;;;;16.08;6.85;;;9.90;99.90;;;;;;5099071;27;20118;-67
2021/10/17 03:30:06;;;;;;;14.02;5.82;;;9.90;99.90;;;;;;5102643;27;20028;-67
2021/10/17 03:32:32;;;;;;;20.60;6.65;;;9.80;99.90;;;;;;5100344;27;20035;-67
2021/10/17 03:34:57;;;;;;;15.40;5.78;;;9.90;99.90;;;;;;5099137;28;20059;-67
2021/10/17 03:37:23;;;;;;;14.80;5.38;;;9.90;99.90;;;;;;5102392;27;20497;-67
2021/10/17 03:39:49;;;;;;;14.45;6.25;;;9.90;99.90;;;;;;5106129;27;20042;-67
2021/10/17 03:42:14;;;;;;;15.45;6.07;;;9.90;99.90;;;;;;5102244;27;20024;-67
2021/10/17 03:44:40;;;;;;;12.38;5.97;;;9.90;99.90;;;;;;5102267;27;20067;-67
2021/10/17 03:47:05;;;;;;;11.90;5.60;;;9.90;99.90;;;;;;5099355;27;20050;-67
2021/10/17 03:49:31;;;;;;;12.23;5.72;;;10.00;99.90;;;;;;5103321;27;20036;-67
2021/10/17 03:51:57;;;;;;;13.57;6.03;;;10.00;99.90;;;;;;5101356;27;20426;-67
2021/10/17 03:54:22;;;;;;;10.23;5.75;;;10.00;99.90;;;;;;5100628;27;20184;-67
2021/10/17 03:56:48;;;;;;;11.43;5.25;;;10.10;99.90;;;;;;5105858;27;20047;-67
2021/10/17 03:59:17;;;;;;;15.02;5.55;;;10.10;99.90;;;;;;5100155;28;20060;-67
2021/10/17 04:01:42;;;;;;;14.35;5.53;;;10.20;99.90;;;;;;5098496;28;20043;-67
2021/10/17 04:04:09;;;;;;;12.75;5.88;;;10.10;99.90;;;;;;5101341;27;20039;-67
2021/10/17 04:06:36;;;;;;;17.20;6.70;;;10.10;99.90;;;;;;5104361;27;20407;-67
2021/10/17 04:09:01;;;;;;;17.33;5.72;;;10.10;99.90;;;;;;5101059;28;20032;-67
2021/10/17 04:11:27;;;;;;;17.30;5.90;;;10.10;99.90;;;;;;5099314;28;20731;-67
2021/10/17 04:13:52;;;;;;;13.18;5.50;;;10.10;99.90;;;;;;5102878;28;20043;-67
2021/10/17 04:16:18;;;;;;;11.27;5.15;;;10.20;99.90;;;;;;5101495;28;20150;-67
2021/10/17 04:18:43;;;;;;;12.45;5.80;;;10.10;99.90;;;;;;5102668;28;20483;-67
2021/10/17 04:21:09;;;;;;;10.60;5.50;;;10.20;99.90;;;;;;5102997;28;20765;-67
2021/10/17 04:23:35;;;;;;;9.63;5.38;;;10.20;99.90;;;;;;5085991;28;20540;-67
2021/10/17 04:26:01;;;;;;;13.95;6.28;;;10.20;99.90;;;;;;5100635;28;20039;-67
2021/10/17 04:28:26;;;;;;;18.58;6.50;;;10.20;99.90;;;;;;5102258;28;20113;-67
2021/10/17 04:30:52;;;;;;;11.73;5.03;;;10.20;99.90;;;;;;5098717;28;20082;-67
2021/10/17 04:33:17;;;;;;;15.88;6.38;;;10.20;99.90;;;;;;5101465;28;20043;-67
2021/10/17 04:35:44;;;;;;;10.25;5.85;;;10.20;99.90;;;;;;5098968;28;21555;-67
2021/10/17 04:38:10;;;;;;;14.30;5.78;;;10.20;99.90;;;;;;5104522;28;20031;-67
2021/10/17 04:40:37;;;;;;;11.85;6.35;;;10.20;99.90;;;;;;5100142;28;21800;-67
2021/10/17 04:43:03;;;;;;;11.68;5.60;;;10.20;99.90;;;;;;5105101;28;20296;-67
2021/10/17 04:45:29;;;;;;;16.70;6.75;;;10.20;99.90;;;;;;5099982;28;20046;-68
2021/10/17 04:47:55;;;;;;;13.60;6.15;;;10.20;99.90;;;;;;5096930;28;20032;-67
2021/10/17 04:50:21;;;;;;;14.63;6.07;;;10.20;99.90;;;;;;5101963;28;20092;-67
2021/10/17 04:52:47;;;;;;;14.10;5.47;;;10.10;99.90;;;;;;5102697;28;20042;-67
2021/10/17 04:55:13;;;;;;;11.43;5.60;;;10.10;99.90;;;;;;5102382;28;20046;-67
2021/10/17 04:57:39;;;;;;;10.18;5.40;;;10.10;99.90;;;;;;5106382;27;20461;-67
2021/10/17 05:00:06;;;;;;;12.52;5.60;;;10.10;99.90;;;;;;5108098;27;20046;-67
2021/10/17 05:02:32;;;;;;;14.52;5.53;;;10.10;99.90;;;;;;5100800;27;20051;-67
2021/10/17 05:04:57;;;;;;;17.05;6.15;;;10.10;99.90;;;;;;5134200;27;20048;-67
2021/10/17 05:07:23;;;;;;;12.43;5.88;;;10.10;99.90;;;;;;5110224;27;20076;-67
2021/10/17 05:09:49;;;;;;;9.88;5.80;;;10.10;99.90;;;;;;5108555;27;20043;-67
2021/10/17 05:12:14;;;;;;;11.95;6.10;;;10.10;99.90;;;;;;5108781;27;20040;-67
2021/10/17 05:14:40;;;;;;;15.98;6.35;;;10.10;99.90;;;;;;5103512;27;20034;-67
2021/10/17 05:17:05;;;;;;;14.38;5.78;;;10.00;99.90;;;;;;5097893;28;22681;-67
2021/10/17 05:19:31;;;;;;;12.68;6.45;;;10.10;99.90;;;;;;5098644;27;20478;-67
2021/10/17 05:21:57;;;;;;;23.35;7.18;;;10.10;99.90;;;;;;5100352;27;20469;-68
2021/10/17 05:24:22;;;;;;;13.40;5.78;;;10.00;99.90;;;;;;5129954;27;20075;-67
2021/10/17 05:26:48;;;;;;;15.88;6.97;;;10.00;99.90;;;;;;5099246;28;20035;-67
2021/10/17 05:29:14;;;;;;;13.30;5.65;;;10.00;99.90;;;;;;5132635;27;20032;-67
2021/10/17 05:31:39;;;;;;;13.98;6.68;;;10.00;99.90;;;;;;5098160;28;20042;-67
2021/10/17 05:34:05;;;;;;;13.90;6.38;;;10.00;99.90;;;;;;5096474;27;20123;-67
2021/10/17 05:36:31;;;;;;;14.30;6.78;;;10.10;99.90;;;;;;5098117;27;20883;-67
2021/10/17 05:38:56;;;;;;;10.85;6.13;;;10.00;99.90;;;;;;5099854;27;20070;-68
2021/10/17 05:41:22;;;;;;;12.98;5.82;;;10.00;99.90;;;;;;5099249;27;20130;-67
2021/10/17 05:43:51;;;;;;;18.92;6.97;;;10.00;99.90;;;;;;5097076;27;20039;-67
2021/10/17 05:46:17;;;;;;;11.02;5.90;;;10.00;99.90;;;;;;5097144;28;20036;-67
2021/10/17 05:48:44;;;;;;;13.35;6.47;;;10.00;99.90;;;;;;5104022;27;20043;-67
2021/10/17 05:51:10;;;;;;;12.05;6.47;;;10.00;99.90;;;;;;5125866;27;20036;-67
2021/10/17 05:53:35;;;;;;;15.15;6.32;;;10.00;99.90;;;;;;5100370;27;20127;-68
2021/10/17 05:56:01;;;;;;;13.57;5.90;;;10.00;99.90;;;;;;5079946;27;20541;-68
2021/10/17 05:58:27;;;;;;;18.02;6.72;;;10.00;99.90;;;;;;5096651;27;20458;-67
2021/10/17 06:00:52;;;;;;;14.10;6.32;;;10.00;99.90;;;;;;5100871;28;20036;-67
2021/10/17 06:03:18;;;;;;;13.45;6.18;;;10.00;99.90;;;;;;5104080;28;20066;-68
2021/10/17 06:05:44;;;;;;;12.85;6.05;;;10.10;99.90;;;;;;5106889;27;20047;-67
2021/10/17 06:08:11;;;;;;;12.35;6.30;;;10.00;99.90;;;;;;5098029;28;20079;-67
2021/10/17 06:10:36;;;;;;;10.30;6.03;;;10.00;99.90;;;;;;5096342;28;20465;-67
2021/10/17 06:13:02;;;;;;;13.88;5.97;;;10.00;99.90;;;;;;5096726;28;20044;-67
2021/10/17 06:15:27;;;;;;;16.02;5.90;;;10.00;99.90;;;;;;5097539;27;20044;-67
2021/10/17 06:17:53;;;;;;;12.85;5.22;;;10.00;99.90;;;;;;5096487;28;20070;-66
2021/10/17 06:20:19;;;;;;;18.23;6.70;;;10.00;99.90;;;;;;5093874;28;20432;-67
2021/10/17 06:22:44;;;;;;;13.13;6.45;;;10.00;99.90;;;;;;5096557;28;20083;-67
2021/10/17 06:25:10;;;;;;;13.27;5.50;;;9.90;99.90;;;;;;5095380;28;20071;-67
2021/10/17 06:27:36;;;;;;;13.00;5.47;;;10.00;99.90;;;;;;5098065;28;20048;-67
2021/10/17 06:30:02;;;;;;;11.00;6.30;;;9.90;99.90;;;;;;5103019;28;20035;-67
2021/10/17 06:32:28;;;;;;;13.00;5.72;;;9.90;99.90;;;;;;5103714;27;20024;-67
2021/10/17 06:34:53;;;;;;;13.43;5.70;;;9.90;99.90;;;;;;5102059;27;20054;-67
2021/10/17 06:37:19;;;;;;;16.13;5.95;;;9.90;99.90;;;;;;5105820;28;20077;-67
2021/10/17 06:39:45;;;;;;;13.80;6.43;;;9.90;99.90;;;;;;5107103;28;20048;-67
2021/10/17 06:42:12;;;;;;;17.45;6.18;;;9.90;99.90;;;;;;5105998;27;20047;-67
2021/10/17 06:44:38;;;;;;;14.18;6.15;;;9.90;99.90;;;;;;5134255;27;20086;-67
2021/10/17 06:47:03;;;;;;;10.73;5.82;;;9.90;99.90;;;;;;5106842;27;20055;-67
2021/10/17 06:49:29;;;;;;;15.65;6.13;;;9.90;99.90;;;;;;5109211;27;20089;-67
2021/10/17 06:51:55;;;;;;;8.90;5.65;;;10.00;99.90;;;;;;5105823;27;20036;-67
2021/10/17 06:54:20;;;;;;;14.23;6.20;;;10.00;99.90;;;;;;5106015;27;20036;-67
2021/10/17 06:56:47;;;;;;;9.68;5.93;;;10.00;99.90;;;;;;5106865;27;20043;-67
2021/10/17 06:59:15;;;;;;;11.90;5.60;;;10.00;99.90;;;;;;5102035;28;20565;-67
2021/10/17 07:01:41;;;;;;;12.95;6.00;;;10.00;99.90;;;;;;5103335;27;20097;-67
2021/10/17 07:04:07;;;;;;;12.95;5.88;;;10.00;99.90;;;;;;5110528;27;20035;-67
2021/10/17 07:06:32;;;;;;;16.15;7.45;;;10.00;99.90;;;;;;5106964;27;20040;-67
2021/10/17 07:08:58;;;;;;;17.42;6.00;;;10.00;99.90;;;;;;5099224;28;20391;-66
2021/10/17 07:11:24;;;;;;;20.20;5.85;;;10.00;99.90;;;;;;5103279;27;20038;-67
2021/10/17 07:13:50;;;;;;;13.60;6.28;;;10.00;99.90;;;;;;5106650;27;20039;-67
2021/10/17 07:16:15;;;;;;;11.75;6.47;;;10.00;99.90;;;;;;5105282;27;20488;-67
2021/10/17 07:18:41;;;;;;;11.55;6.07;;;10.00;99.90;;;;;;5098341;27;20089;-67
2021/10/17 07:21:07;;;;;;;14.10;5.80;;;10.00;99.90;;;;;;5132615;27;20490;-67
2021/10/17 07:23:33;;;;;;;10.23;5.93;;;10.00;99.90;;;;;;5103069;27;20486;-67
2021/10/17 07:25:58;;;;;;;9.18;5.60;;;10.00;99.90;;;;;;5105740;27;20058;-67
2021/10/17 07:28:24;;;;;;;16.05;5.90;;;10.00;99.90;;;;;;5105957;27;20027;-67
2021/10/17 07:30:50;;;;;;;12.93;6.47;;;10.00;99.90;;;;;;5107854;27;20035;-67
2021/10/17 07:33:16;;;;;;;13.63;6.25;;;9.90;99.90;;;;;;5104449;27;20593;-67
2021/10/17 07:35:41;;;;;;;17.38;6.22;;;9.90;99.90;;;;;;5096805;28;20154;-67
2021/10/17 07:38:07;;;;;;;13.55;6.07;;;9.90;99.90;;;;;;5098054;28;20043;-67
2021/10/17 07:40:33;;;;;;;13.98;6.20;;;10.00;99.90;;;;;;5102836;28;20058;-67
2021/10/17 07:42:59;;;;;;;17.40;5.85;;;10.00;99.90;;;;;;5100699;28;20557;-67
2021/10/17 07:45:25;;;;;;;16.55;7.45;;;10.00;99.90;;;;;;5099627;27;20046;-67
2021/10/17 07:47:51;;;;;;;18.25;6.47;;;10.00;99.90;;;;;;5101597;28;20028;-67
2021/10/17 07:50:16;;;;;;;13.95;6.50;;;10.00;99.90;;;;;;5096113;27;20050;-67
2021/10/17 07:52:42;;;;;;;11.18;5.53;;;10.00;99.90;;;;;;5104392;28;20043;-67
2021/10/17 07:55:08;;;;;;;11.10;5.63;;;10.10;99.90;;;;;;5130976;27;20036;-67
2021/10/17 07:57:50;;;;;;;11.75;6.18;;;10.10;99.90;;;;;;5103347;27;20039;-67
2021/10/17 08:00:23;;;;;;;13.82;5.75;;;10.10;99.90;;;;;;5104412;28;20043;-67
2021/10/17 08:02:49;;;;;;;10.63;6.05;;;10.20;99.90;;;;;;5086403;28;20040;-67
2021/10/17 08:05:15;;;;;;;12.02;6.22;;;10.20;99.90;;;;;;5105644;27;20036;-67
2021/10/17 08:07:41;;;;;;;10.45;6.15;;;10.20;99.90;;;;;;5099873;28;20358;-67
2021/10/17 08:10:08;;;;;;;13.48;5.50;;;10.20;99.90;;;;;;5107163;27;20043;-67
2021/10/17 08:12:34;;;;;;;13.82;5.47;;;10.30;99.90;;;;;;5119856;27;20047;-67
2021/10/17 08:15:00;;;;;;;10.45;5.53;;;10.30;99.90;;;;;;5103080;28;20048;-67
2021/10/17 08:17:25;;;;;;;12.13;6.20;;;10.30;99.90;;;;;;5104750;28;20488;-67
2021/10/17 08:19:51;;;;;;;12.48;6.45;;;10.40;99.90;;;;;;5104929;28;20052;-67
2021/10/17 08:22:21;;;;;;;16.38;6.13;;;10.40;99.90;;;;;;5102428;28;20694;-67
2021/10/17 08:24:47;;;;;;;15.60;6.05;;;10.40;99.90;;;;;;5105177;28;20051;-67
2021/10/17 08:27:13;;;;;;;11.88;6.28;;;10.40;99.90;;;;;;5108639;28;20077;-67
2021/10/17 08:29:39;;;;;;;14.18;6.18;;;10.50;99.90;;;;;;5103755;28;20067;-67
2021/10/17 08:32:05;;;;;;;17.42;6.22;;;10.50;99.90;;;;;;5104941;27;20533;-67
2021/10/17 08:34:31;;;;;;;13.95;6.35;;;10.50;99.90;;;;;;5107185;27;20505;-67
2021/10/17 08:36:56;;;;;;;13.45;6.22;;;10.60;99.90;;;;;;5107632;27;20530;-67
2021/10/17 08:39:22;;;;;;;14.35;6.15;;;10.60;99.90;;;;;;5106396;27;20039;-67
2021/10/17 08:41:47;;;;;;;14.80;6.00;;;10.50;99.90;;;;;;5107187;27;20507;-67
2021/10/17 08:44:13;;;;;;;15.18;5.82;;;10.60;99.90;;;;;;5108912;27;20051;-67
2021/10/17 08:46:40;;;;;;;18.48;7.88;;;10.60;99.90;;;;;;5107007;27;20032;-67
2021/10/17 08:49:06;;;;;;;17.77;6.80;;;10.70;99.90;;;;;;5108544;27;20031;-67
2021/10/17 08:51:32;;;;;;;19.77;6.63;;;10.70;99.90;;;;;;5106955;27;20039;-67
2021/10/17 08:53:59;;;;;;;13.13;6.68;;;10.80;99.90;;;;;;5107173;28;20048;-67
2021/10/17 08:56:25;;;;;;;11.75;6.43;;;10.70;99.90;;;;;;5107309;28;20043;-67
2021/10/17 08:58:51;;;;;;;14.35;6.22;;;10.70;99.90;;;;;;5100820;28;20078;-67
2021/10/17 09:01:17;;;;;;;11.98;6.47;;;10.70;99.90;;;;;;5103892;28;20437;-67
2021/10/17 09:03:52;;;;;;;17.02;7.00;;;10.70;99.90;;;;;;5109099;27;20043;-67
2021/10/17 09:06:21;;;;;;;13.90;6.93;;;10.80;99.90;;;;;;5110105;27;20046;-67
2021/10/17 09:08:46;;;;;;;14.00;6.97;;;10.80;99.90;;;;;;5105511;27;20071;-67
2021/10/17 09:11:12;;;;;;;15.32;6.85;;;10.80;99.90;;;;;;5105838;28;20078;-67
2021/10/17 09:14:27;;;;;;;15.90;6.88;;;10.90;99.90;;;;;;5104431;28;20036;-67
2021/10/17 09:16:55;;;;;;;15.45;6.43;;;11.00;99.90;;;;;;5095088;27;20134;-67
2021/10/17 09:19:22;;;;;;;11.85;6.57;;;11.00;99.90;;;;;;5106765;27;20042;-67
2021/10/17 09:21:57;;;;;;;14.50;7.03;;;11.00;99.90;;;;;;5108851;27;20181;-67
2021/10/17 09:24:26;;;;;;;13.83;6.27;;;11.00;99.90;;;;;;5131220;27;20119;-67
2021/10/17 09:27:07;;;;;;;13.52;6.53;;;11.00;99.90;;;;;;5108346;27;20039;-67
2021/10/17 09:29:33;;;;;;;16.67;6.93;;;11.00;99.90;;;;;;5132610;27;20048;-67
2021/10/17 09:31:59;;;;;;;13.48;6.00;;;11.00;99.90;;;;;;5104351;27;20067;-67
2021/10/17 09:34:29;;;;;;;14.75;7.20;;;11.00;99.90;;;;;;5105119;28;20067;-67
2021/10/17 09:37:08;;;;;;;15.05;6.35;;;11.00;99.90;;;;;;5108923;28;20043;-67
2021/10/17 09:39:37;;;;;;;13.00;6.10;;;11.10;99.90;;;;;;5105251;27;20477;-67
2021/10/17 09:42:03;;;;;;;11.93;7.57;;;11.10;99.90;;;;;;5107043;27;20075;-67
2021/10/17 09:44:40;;;;;;;14.60;6.70;;;11.10;99.90;;;;;;5109194;27;20122;-67
2021/10/17 09:47:06;;;;;;;16.55;6.90;;;11.20;99.90;;;;;;5108647;27;20369;-67
2021/10/17 09:49:31;;;;;;;16.33;5.93;;;11.10;99.90;;;;;;5105980;27;20031;-67
2021/10/17 09:52:17;;;;;;;13.15;6.43;;;11.10;99.90;;;;;;5107533;27;20423;-67
2021/10/17 09:55:08;;;;;;;16.27;6.45;;;11.20;99.90;;;;;;5106588;27;20794;-67
2021/10/17 09:57:35;;;;;;;16.23;6.53;;;11.20;99.90;;;;;;5106543;27;20485;-67
2021/10/17 10:00:02;;;;;;;10.00;5.72;;;11.20;99.90;;;;;;5108421;27;20047;-67
2021/10/17 10:02:28;;;;;;;17.52;7.03;;;11.30;99.90;;;;;;5088078;28;20031;-67
2021/10/17 10:04:55;;;;;;;18.35;6.22;;;11.20;99.90;;;;;;5108020;27;20043;-67
2021/10/17 10:07:25;;;;;;;20.52;7.65;;;11.20;99.90;;;;;;5105226;27;20043;-67
2021/10/17 10:09:54;;;;;;;17.38;6.57;;;11.20;99.90;;;;;;5108267;27;20557;-67
2021/10/17 10:12:23;;;;;;;16.70;6.30;;;11.30;99.90;;;;;;5104575;27;20039;-67
2021/10/17 10:14:50;;;;;;;13.48;5.93;;;11.30;99.90;;;;;;5103405;27;20139;-67
2021/10/17 10:17:17;;;;;;;14.30;6.80;;;11.30;99.90;;;;;;5133152;27;20039;-67
2021/10/17 10:19:44;;;;;;;13.57;6.25;;;11.30;99.90;;;;;;5105788;27;20046;-67
2021/10/17 10:22:12;;;;;;;10.70;6.55;;;11.40;99.90;;;;;;5104759;27;20035;-67
2021/10/17 10:24:38;;;;;;;11.27;5.53;;;11.40;99.90;;;;;;5103614;27;20036;-67
2021/10/17 10:27:07;;;;;;;13.93;6.90;;;11.40;99.90;;;;;;5105571;27;20030;-67
2021/10/17 10:29:34;;;;;;;16.98;6.03;;;11.40;99.90;;;;;;5120430;27;20500;-67
2021/10/17 10:32:06;;;;;;;11.02;5.85;;;11.40;99.90;;;;;;5105392;27;20040;-67
2021/10/17 10:34:31;;;;;;;12.18;5.93;;;11.40;99.90;;;;;;5104480;28;20055;-67
2021/10/17 10:37:18;;;;;;;10.50;5.43;;;11.40;99.90;;;;;;5102538;28;20039;-67
2021/10/17 10:40:02;;;;;;;14.38;5.85;;;11.40;99.90;;;;;;5108415;27;20051;-67
2021/10/17 10:42:37;;;;;;;9.45;5.50;;;11.50;99.90;;;;;;5131562;27;20036;-67
2021/10/17 10:45:22;;;;;;;9.70;5.20;;;11.50;99.90;;;;;;5102083;28;20054;-67
2021/10/17 10:48:07;;;;;;;11.85;6.22;;;11.50;99.90;;;;;;5106696;27;20050;-67
2021/10/17 10:50:34;;;;;;;8.87;5.90;;;11.60;99.90;;;;;;5105278;27;20067;-67
2021/10/17 10:53:00;;;;;;;14.82;6.88;;;11.60;99.90;;;;;;5101121;28;20081;-67
2021/10/17 10:55:44;;;;;;;14.63;6.20;;;11.60;99.90;;;;;;5104973;27;20039;-67
2021/10/17 10:58:36;;;;;;;10.93;5.30;;;11.70;99.90;;;;;;5105863;27;20043;-67
2021/10/17 11:01:02;;;;;;;12.25;5.93;;;11.80;99.90;;;;;;5105925;28;20042;-67
2021/10/17 11:03:41;;;;;;;10.32;5.63;;;11.90;99.90;;;;;;5102281;27;20507;-67
2021/10/17 11:06:10;;;;;;;13.77;5.10;;;12.00;99.90;;;;;;5105596;27;20524;-67
2021/10/17 11:08:38;;;;;;;11.15;5.60;;;12.00;99.90;;;;;;5104232;27;20031;-67
2021/10/17 11:11:05;;;;;;;11.35;5.60;;;12.10;99.90;;;;;;5108735;27;20118;-68
2021/10/17 11:13:46;;;;;;;10.88;5.13;;;12.20;99.90;;;;;;5106655;27;20044;-67
2021/10/17 11:16:22;;;;;;;19.08;6.80;;;12.30;99.90;;;;;;5102893;27;20062;-67
2021/10/17 11:18:56;;;;;;;14.05;5.50;;;12.40;99.90;;;;;;5131630;27;20131;-67
2021/10/17 11:21:30;;;;;;;11.30;4.72;;;12.50;99.90;;;;;;5106451;27;20062;-67
2021/10/17 11:23:56;;;;;;;10.57;4.90;;;12.50;99.90;;;;;;5103642;27;20527;-67
2021/10/17 11:26:21;;;;;;;11.30;5.55;;;12.50;99.90;;;;;;5105938;27;20043;-67
2021/10/17 11:28:49;;;;;;;13.82;5.47;;;12.50;99.90;;;;;;5107814;27;20047;-67
2021/10/17 11:31:20;;;;;;;13.88;5.05;;;12.60;99.90;;;;;;5105647;27;20384;-67
2021/10/17 11:33:46;;;;;;;11.25;5.85;;;12.60;99.90;;;;;;5104709;28;20047;-67
2021/10/17 11:36:15;;;;;;;11.95;4.28;;;12.70;99.90;;;;;;5106990;27;20042;-67
2021/10/17 11:38:42;;;;;;;13.38;4.53;;;12.60;99.90;;;;;;5103831;28;20035;-67
2021/10/17 11:41:10;;;;;;;9.57;4.22;;;12.70;99.90;;;;;;5107133;27;20122;-67
2021/10/17 11:43:37;;;;;;;12.68;4.78;;;12.60;99.90;;;;;;5100797;28;20131;-67
2021/10/17 11:46:06;;;;;;;8.65;3.92;;;12.70;99.90;;;;;;5105683;27;20396;-67
2021/10/17 11:48:33;;;;;;;10.00;4.50;;;12.70;99.90;;;;;;5104758;27;20047;-67
2021/10/17 11:51:06;;;;;;;10.63;3.90;;;12.60;99.90;;;;;;5111152;27;20070;-67
2021/10/17 11:53:33;;;;;;;7.07;3.97;;;12.70;99.90;;;;;;5101915;28;20122;-67
2021/10/17 11:55:59;;;;;;;8.75;4.30;;;12.70;99.90;;;;;;5102364;28;20051;-67
2021/10/17 11:58:30;;;;;;;14.88;4.22;;;12.70;99.90;;;;;;5109032;27;20039;-67
2021/10/17 12:01:14;;;;;;;9.82;4.35;;;12.80;99.90;;;;;;5109328;27;20439;-67
2021/10/17 12:03:41;;;;;;;11.55;4.60;;;12.80;99.90;;;;;;5099559;28;20044;-67
2021/10/17 12:06:18;;;;;;;7.53;3.80;;;12.80;99.90;;;;;;5104934;27;20054;-67
2021/10/17 12:08:55;;;;;;;11.38;4.72;;;12.90;99.90;;;;;;5101821;27;20051;-67
2021/10/17 12:11:21;;;;;;;9.57;5.00;;;12.90;99.90;;;;;;5103722;28;20035;-67
2021/10/17 12:13:56;;;;;;;11.15;4.68;;;12.90;99.90;;;;;;5096831;28;20058;-67
2021/10/17 12:16:29;;;;;;;9.05;4.50;;;12.90;99.90;;;;;;5126628;27;20146;-67
2021/10/17 12:19:02;;;;;;;13.27;5.38;;;13.00;99.90;;;;;;5094089;28;20128;-67
2021/10/17 12:21:31;;;;;;;8.40;3.90;;;13.00;99.90;;;;;;5096205;28;20165;-67
2021/10/17 12:23:57;;;;;;;11.18;4.45;;;13.10;99.90;;;;;;5095728;28;20047;-67
2021/10/17 12:26:26;;;;;;;12.13;5.03;;;13.20;99.90;;;;;;5097827;28;20040;-67
2021/10/17 12:29:17;;;;;;;11.02;4.28;;;13.20;99.90;;;;;;5092038;28;20047;-67
2021/10/17 12:31:45;;;;;;;14.82;4.55;;;13.30;99.90;;;;;;5094552;28;20043;-67
2021/10/17 12:34:13;;;;;;;10.65;4.95;;;13.30;99.90;;;;;;5124864;27;20074;-67
2021/10/17 12:36:41;;;;;;;10.82;4.57;;;13.30;99.90;;;;;;5095907;28;20093;-67
2021/10/17 12:39:11;;;;;;;16.45;4.57;;;13.40;99.90;;;;;;5095924;28;20071;-67